sensor_id;sensor_type;location;lat;lon;timestamp;pressure;altitude;pressure_sealevel;temperature;humidity
56330;BME280;42236;48.058;10.632;2022-10-15T00:00:46;94297.78;;;12.50;100.00
56330;BME280;42236;48.058;10.632;2022-10-15T00:03:34;94288.09;;;12.49;100.00
56330;BME280;42236;48.058;10.632;2022-10-15T00:06:20;94285.38;;;12.49;100.00
56330;BME280;42236;48.058;10.632;2022-10-15T00:09:06;94286.09;;;12.46;100.00
56330;BME280;42236;48.058;10.632;2022-10-15T00:11:51;94286.88;;;12.46;100.00
56330;BME280;42236;48.058;10.632;2022-10-15T00:14:37;94277.25;;;12.49;100.00
56330;BME280;42236;48.058;10.632;2022-10-15T00:17:23;94278.13;;;12.53;100.00
56330;BME280;42236;48.058;10.632;2022-10-15T00:20:09;94285.16;;;12.57;100.00
56330;BME280;42236;48.058;10.632;2022-10-15T00:22:55;94283.66;;;12.60;100.00
56330;BME280;42236;48.058;10.632;2022-10-15T00:25:40;94269.38;;;12.63;100.00
56330;BME280;42236;48.058;10.632;2022-10-15T00:28:26;94267.53;;;12.67;100.00
56330;BME280;42236;48.058;10.632;2022-10-15T00:31:14;94270.66;;;12.69;100.00
56330;BME280;42236;48.058;10.632;2022-10-15T00:34:01;94272.19;;;12.70;100.00
56330;BME280;42236;48.058;10.632;2022-10-15T00:36:48;94270.34;;;12.74;100.00
56330;BME280;42236;48.058;10.632;2022-10-15T00:39:35;94261.88;;;12.76;100.00
56330;BME280;42236;48.058;10.632;2022-10-15T00:42:20;94260.34;;;12.78;100.00
56330;BME280;42236;48.058;10.632;2022-10-15T00:45:14;94263.47;;;12.80;100.00
56330;BME280;42236;48.058;10.632;2022-10-15T00:47:59;94256.50;;;12.79;100.00
56330;BME280;42236;48.058;10.632;2022-10-15T00:50:45;94270.88;;;12.84;100.00
56330;BME280;42236;48.058;10.632;2022-10-15T00:53:31;94262.75;;;12.84;100.00
56330;BME280;42236;48.058;10.632;2022-10-15T00:56:19;94249.66;;;12.86;100.00
56330;BME280;42236;48.058;10.632;2022-10-15T00:59:06;94260.47;;;12.86;100.00
56330;BME280;42236;48.058;10.632;2022-10-15T01:01:53;94263.94;;;12.86;100.00
56330;BME280;42236;48.058;10.632;2022-10-15T01:04:40;94260.88;;;12.88;100.00
56330;BME280;42236;48.058;10.632;2022-10-15T01:07:26;94256.59;;;12.87;100.00
56330;BME280;42236;48.058;10.632;2022-10-15T01:10:12;94246.19;;;12.89;100.00
56330;BME280;42236;48.058;10.632;2022-10-15T01:13:10;94238.50;;;12.91;100.00
56330;BME280;42236;48.058;10.632;2022-10-15T01:19:04;94245.03;;;12.90;100.00
56330;BME280;42236;48.058;10.632;2022-10-15T01:22:00;94237.31;;;12.88;100.00
56330;BME280;42236;48.058;10.632;2022-10-15T01:25:20;94240.03;;;12.92;100.00
56330;BME280;42236;48.058;10.632;2022-10-15T01:34:30;94235.00;;;12.90;100.00
56330;BME280;42236;48.058;10.632;2022-10-15T01:37:28;94229.97;;;12.89;100.00
56330;BME280;42236;48.058;10.632;2022-10-15T01:40:32;94231.94;;;12.92;100.00
56330;BME280;42236;48.058;10.632;2022-10-15T01:43:28;94229.22;;;12.92;100.00
56330;BME280;42236;48.058;10.632;2022-10-15T01:46:26;94230.38;;;12.91;100.00
56330;BME280;42236;48.058;10.632;2022-10-15T01:49:17;94230.38;;;12.91;100.00
56330;BME280;42236;48.058;10.632;2022-10-15T01:52:31;94231.50;;;12.90;100.00
56330;BME280;42236;48.058;10.632;2022-10-15T01:55:19;94217.19;;;12.89;100.00
56330;BME280;42236;48.058;10.632;2022-10-15T01:58:06;94218.78;;;12.90;100.00
56330;BME280;42236;48.058;10.632;2022-10-15T02:00:55;94229.59;;;12.90;100.00
56330;BME280;42236;48.058;10.632;2022-10-15T02:06:35;94211.84;;;12.93;100.00
56330;BME280;42236;48.058;10.632;2022-10-15T02:15:46;94216.53;;;12.96;100.00
56330;BME280;42236;48.058;10.632;2022-10-15T02:18:41;94217.28;;;12.96;100.00
56330;BME280;42236;48.058;10.632;2022-10-15T02:24:24;94222.34;;;12.98;100.00
56330;BME280;42236;48.058;10.632;2022-10-15T02:27:13;94215.78;;;12.99;100.00
56330;BME280;42236;48.058;10.632;2022-10-15T02:30:02;94224.69;;;12.99;100.00
56330;BME280;42236;48.058;10.632;2022-10-15T02:32:52;94216.97;;;13.01;100.00
56330;BME280;42236;48.058;10.632;2022-10-15T02:35:41;94214.69;;;13.03;100.00
56330;BME280;42236;48.058;10.632;2022-10-15T02:38:28;94207.34;;;13.04;100.00
56330;BME280;42236;48.058;10.632;2022-10-15T02:41:17;94206.22;;;13.05;100.00
56330;BME280;42236;48.058;10.632;2022-10-15T02:44:03;94211.66;;;13.09;100.00
56330;BME280;42236;48.058;10.632;2022-10-15T02:46:49;94199.63;;;13.06;100.00
56330;BME280;42236;48.058;10.632;2022-10-15T02:49:34;94197.34;;;13.08;100.00
56330;BME280;42236;48.058;10.632;2022-10-15T02:52:20;94201.59;;;13.09;100.00
56330;BME280;42236;48.058;10.632;2022-10-15T02:55:06;94195.81;;;13.11;100.00
56330;BME280;42236;48.058;10.632;2022-10-15T02:57:52;94199.31;;;13.11;100.00
56330;BME280;42236;48.058;10.632;2022-10-15T03:00:37;94200.09;;;13.12;100.00
56330;BME280;42236;48.058;10.632;2022-10-15T03:03:23;94185.78;;;13.11;100.00
56330;BME280;42236;48.058;10.632;2022-10-15T03:06:09;94202.06;;;13.15;100.00
56330;BME280;42236;48.058;10.632;2022-10-15T03:08:54;94201.28;;;13.14;100.00
56330;BME280;42236;48.058;10.632;2022-10-15T03:11:40;94197.44;;;13.15;100.00
56330;BME280;42236;48.058;10.632;2022-10-15T03:14:25;94199.78;;;13.17;100.00
56330;BME280;42236;48.058;10.632;2022-10-15T03:17:11;94205.59;;;13.19;100.00
56330;BME280;42236;48.058;10.632;2022-10-15T03:19:56;94214.53;;;13.19;100.00
56330;BME280;42236;48.058;10.632;2022-10-15T03:22:42;94206.00;;;13.21;100.00
56330;BME280;42236;48.058;10.632;2022-10-15T03:25:28;94200.66;;;13.24;100.00
56330;BME280;42236;48.058;10.632;2022-10-15T03:28:13;94204.91;;;13.26;100.00
56330;BME280;42236;48.058;10.632;2022-10-15T03:30:59;94202.19;;;13.26;100.00
56330;BME280;42236;48.058;10.632;2022-10-15T03:33:44;94202.19;;;13.26;100.00
56330;BME280;42236;48.058;10.632;2022-10-15T03:36:30;94208.06;;;13.28;100.00
56330;BME280;42236;48.058;10.632;2022-10-15T03:39:16;94203.78;;;13.27;100.00
56330;BME280;42236;48.058;10.632;2022-10-15T03:42:01;94211.19;;;13.30;100.00
56330;BME280;42236;48.058;10.632;2022-10-15T03:44:47;94212.31;;;13.29;100.00
56330;BME280;42236;48.058;10.632;2022-10-15T03:47:32;94197.66;;;13.30;100.00
56330;BME280;42236;48.058;10.632;2022-10-15T03:50:18;94210.81;;;13.31;100.00
56330;BME280;42236;48.058;10.632;2022-10-15T03:53:04;94208.50;;;13.33;100.00
56330;BME280;42236;48.058;10.632;2022-10-15T03:55:50;94203.91;;;13.34;100.00
56330;BME280;42236;48.058;10.632;2022-10-15T03:58:35;94205.81;;;13.33;100.00
56330;BME280;42236;48.058;10.632;2022-10-15T04:01:21;94216.28;;;13.35;100.00
56330;BME280;42236;48.058;10.632;2022-10-15T04:04:06;94224.41;;;13.35;100.00
56330;BME280;42236;48.058;10.632;2022-10-15T04:06:52;94220.97;;;13.38;100.00
56330;BME280;42236;48.058;10.632;2022-10-15T04:09:38;94222.53;;;13.39;100.00
56330;BME280;42236;48.058;10.632;2022-10-15T04:12:23;94231.09;;;13.41;100.00
56330;BME280;42236;48.058;10.632;2022-10-15T04:15:09;94224.84;;;13.40;100.00
56330;BME280;42236;48.058;10.632;2022-10-15T04:17:55;94211.31;;;13.40;100.00
56330;BME280;42236;48.058;10.632;2022-10-15T04:20:41;94226.84;;;13.43;100.00
56330;BME280;42236;48.058;10.632;2022-10-15T04:23:27;94228.03;;;13.46;100.00
56330;BME280;42236;48.058;10.632;2022-10-15T04:26:12;94226.47;;;13.45;100.00
56330;BME280;42236;48.058;10.632;2022-10-15T04:28:58;94228.03;;;13.46;100.00
56330;BME280;42236;48.058;10.632;2022-10-15T04:31:43;94228.03;;;13.46;100.00
56330;BME280;42236;48.058;10.632;2022-10-15T04:34:29;94237.38;;;13.49;100.00
56330;BME280;42236;48.058;10.632;2022-10-15T04:37:15;94230.38;;;13.48;100.00
56330;BME280;42236;48.058;10.632;2022-10-15T04:40:00;94234.66;;;13.49;100.00
56330;BME280;42236;48.058;10.632;2022-10-15T04:42:47;94240.84;;;13.49;100.00
56330;BME280;42236;48.058;10.632;2022-10-15T04:45:33;94236.97;;;13.50;100.00
56330;BME280;42236;48.058;10.632;2022-10-15T04:48:18;94246.69;;;13.51;100.00
56330;BME280;42236;48.058;10.632;2022-10-15T04:51:05;94253.66;;;13.52;100.00
56330;BME280;42236;48.058;10.632;2022-10-15T04:53:51;94248.66;;;13.54;100.00
56330;BME280;42236;48.058;10.632;2022-10-15T04:56:37;94245.94;;;13.54;100.00
56330;BME280;42236;48.058;10.632;2022-10-15T04:59:23;94245.94;;;13.54;100.00
56330;BME280;42236;48.058;10.632;2022-10-15T05:02:09;94249.00;;;13.53;100.00
56330;BME280;42236;48.058;10.632;2022-10-15T05:04:55;94253.66;;;13.52;100.00
56330;BME280;42236;48.058;10.632;2022-10-15T05:07:40;94254.81;;;13.51;100.00
56330;BME280;42236;48.058;10.632;2022-10-15T05:10:26;94262.94;;;13.51;100.00
56330;BME280;42236;48.058;10.632;2022-10-15T05:13:12;94254.41;;;13.49;100.00
56330;BME280;42236;48.058;10.632;2022-10-15T05:16:07;94256.69;;;13.47;100.00
56330;BME280;42236;48.058;10.632;2022-10-15T05:18:56;94265.97;;;13.46;100.00
56330;BME280;42236;48.058;10.632;2022-10-15T05:21:43;94264.41;;;13.45;100.00
56330;BME280;42236;48.058;10.632;2022-10-15T05:24:29;94273.69;;;13.44;100.00
56330;BME280;42236;48.058;10.632;2022-10-15T05:27:14;94276.41;;;13.44;100.00
56330;BME280;42236;48.058;10.632;2022-10-15T05:30:00;94273.28;;;13.42;100.00
56330;BME280;42236;48.058;10.632;2022-10-15T05:32:50;94282.59;;;13.44;100.00
56330;BME280;42236;48.058;10.632;2022-10-15T05:35:36;94277.59;;;13.47;100.00
56330;BME280;42236;48.058;10.632;2022-10-15T05:38:22;94277.59;;;13.47;100.00
56330;BME280;42236;48.058;10.632;2022-10-15T05:41:08;94293.84;;;13.47;100.00
56330;BME280;42236;48.058;10.632;2022-10-15T05:43:56;94290.75;;;13.48;100.00
56330;BME280;42236;48.058;10.632;2022-10-15T05:46:41;94298.53;;;13.50;100.00
56330;BME280;42236;48.058;10.632;2022-10-15T05:49:27;94297.75;;;13.49;100.00
56330;BME280;42236;48.058;10.632;2022-10-15T05:52:13;94314.44;;;13.51;100.00
56330;BME280;42236;48.058;10.632;2022-10-15T05:54:58;94316.38;;;13.51;100.00
56330;BME280;42236;48.058;10.632;2022-10-15T05:57:44;94312.06;;;13.46;100.00
56330;BME280;42236;48.058;10.632;2022-10-15T06:00:30;94305.81;;;13.45;100.00
56330;BME280;42236;48.058;10.632;2022-10-15T06:03:15;94307.75;;;13.45;100.00
56330;BME280;42236;48.058;10.632;2022-10-15T06:06:01;94322.47;;;13.44;100.00
56330;BME280;42236;48.058;10.632;2022-10-15T06:08:47;94315.47;;;13.43;100.00
56330;BME280;42236;48.058;10.632;2022-10-15T06:11:35;94322.81;;;13.42;100.00
56330;BME280;42236;48.058;10.632;2022-10-15T06:14:20;94318.59;;;13.45;100.00
56330;BME280;42236;48.058;10.632;2022-10-15T06:17:06;94319.38;;;13.45;100.00
56330;BME280;42236;48.058;10.632;2022-10-15T06:19:52;94323.28;;;13.48;100.00
56330;BME280;42236;48.058;10.632;2022-10-15T06:22:37;94320.22;;;13.50;100.00
56330;BME280;42236;48.058;10.632;2022-10-15T06:25:23;94322.19;;;13.53;100.00
56330;BME280;42236;48.058;10.632;2022-10-15T06:28:09;94330.72;;;13.55;100.00
56330;BME280;42236;48.058;10.632;2022-10-15T06:30:57;94325.38;;;13.58;100.00
56330;BME280;42236;48.058;10.632;2022-10-15T06:33:44;94338.97;;;13.62;100.00
56330;BME280;42236;48.058;10.632;2022-10-15T06:36:29;94333.59;;;13.65;100.00
56330;BME280;42236;48.058;10.632;2022-10-15T06:39:15;94342.88;;;13.64;100.00
56330;BME280;42236;48.058;10.632;2022-10-15T06:42:01;94342.16;;;13.68;100.00
56330;BME280;42236;48.058;10.632;2022-10-15T06:44:46;94350.69;;;13.70;100.00
56330;BME280;42236;48.058;10.632;2022-10-15T06:47:32;94357.69;;;13.71;100.00
56330;BME280;42236;48.058;10.632;2022-10-15T06:50:18;94362.34;;;13.74;100.00
56330;BME280;42236;48.058;10.632;2022-10-15T06:53:04;94362.34;;;13.74;100.00
56330;BME280;42236;48.058;10.632;2022-10-15T06:55:50;94371.69;;;13.76;100.00
56330;BME280;42236;48.058;10.632;2022-10-15T06:58:36;94374.03;;;13.78;100.00
56330;BME280;42236;48.058;10.632;2022-10-15T07:01:21;94387.19;;;13.76;100.00
56330;BME280;42236;48.058;10.632;2022-10-15T07:04:07;94388.72;;;13.77;100.00
56330;BME280;42236;48.058;10.632;2022-10-15T07:06:53;94391.09;;;13.78;100.00
56330;BME280;42236;48.058;10.632;2022-10-15T07:09:38;94390.72;;;13.80;100.00
56330;BME280;42236;48.058;10.632;2022-10-15T07:12:24;94409.72;;;13.80;100.00
56330;BME280;42236;48.058;10.632;2022-10-15T07:15:10;94402.69;;;13.79;100.00
56330;BME280;42236;48.058;10.632;2022-10-15T07:17:55;94407.38;;;13.82;100.00
56330;BME280;42236;48.058;10.632;2022-10-15T07:20:42;94413.63;;;13.82;100.00
56330;BME280;42236;48.058;10.632;2022-10-15T07:23:27;94411.25;;;13.81;100.00
56330;BME280;42236;48.058;10.632;2022-10-15T07:26:13;94418.19;;;13.78;100.00
56330;BME280;42236;48.058;10.632;2022-10-15T07:28:59;94422.06;;;13.77;100.00
56330;BME280;42236;48.058;10.632;2022-10-15T07:31:45;94421.66;;;13.75;100.00
56330;BME280;42236;48.058;10.632;2022-10-15T07:34:31;94426.25;;;13.75;100.00
56330;BME280;42236;48.058;10.632;2022-10-15T07:37:16;94427.84;;;13.76;100.00
56330;BME280;42236;48.058;10.632;2022-10-15T07:40:02;94433.31;;;13.79;100.00
56330;BME280;42236;48.058;10.632;2022-10-15T07:42:55;94441.09;;;13.81;100.00
56330;BME280;42236;48.058;10.632;2022-10-15T07:45:46;94433.00;;;13.84;100.00
56330;BME280;42236;48.058;10.632;2022-10-15T07:48:32;94447.34;;;13.85;100.00
56330;BME280;42236;48.058;10.632;2022-10-15T07:51:18;94448.53;;;13.87;100.00
56330;BME280;42236;48.058;10.632;2022-10-15T07:54:03;94457.88;;;13.90;100.00
56330;BME280;42236;48.058;10.632;2022-10-15T07:56:49;94456.72;;;13.91;100.00
56330;BME280;42236;48.058;10.632;2022-10-15T07:59:35;94461.78;;;13.93;100.00
56330;BME280;42236;48.058;10.632;2022-10-15T08:02:20;94465.69;;;13.95;100.00
56330;BME280;42236;48.058;10.632;2022-10-15T08:05:07;94465.38;;;14.00;100.00
56330;BME280;42236;48.058;10.632;2022-10-15T08:07:52;94467.41;;;14.07;100.00
56330;BME280;42236;48.058;10.632;2022-10-15T08:10:38;94466.31;;;14.12;100.00
56330;BME280;42236;48.058;10.632;2022-10-15T08:13:24;94463.69;;;14.19;100.00
56330;BME280;42236;48.058;10.632;2022-10-15T08:16:12;94471.53;;;14.24;100.00
56330;BME280;42236;48.058;10.632;2022-10-15T08:18:58;94465.78;;;14.33;100.00
56330;BME280;42236;48.058;10.632;2022-10-15T08:21:45;94469.69;;;14.35;100.00
56330;BME280;42236;48.058;10.632;2022-10-15T08:24:30;94471.72;;;14.42;100.00
56330;BME280;42236;48.058;10.632;2022-10-15T08:27:16;94468.75;;;14.50;100.00
56330;BME280;42236;48.058;10.632;2022-10-15T08:30:02;94468.88;;;14.58;100.00
56330;BME280;42236;48.058;10.632;2022-10-15T08:32:48;94469.69;;;14.62;100.00
56330;BME280;42236;48.058;10.632;2022-10-15T08:35:33;94464.31;;;14.69;100.00
56330;BME280;42236;48.058;10.632;2022-10-15T08:38:23;94467.53;;;14.78;100.00
56330;BME280;42236;48.058;10.632;2022-10-15T08:41:21;94462.19;;;14.85;100.00
56330;BME280;42236;48.058;10.632;2022-10-15T08:47:51;94463.09;;;14.97;100.00
56330;BME280;42236;48.058;10.632;2022-10-15T08:50:59;94461.59;;;15.03;100.00
56330;BME280;42236;48.058;10.632;2022-10-15T08:53:53;94467.09;;;15.10;100.00
56330;BME280;42236;48.058;10.632;2022-10-15T08:56:43;94466.38;;;15.17;99.77
56330;BME280;42236;48.058;10.632;2022-10-15T09:02:31;94461.09;;;15.31;98.09
56330;BME280;42236;48.058;10.632;2022-10-15T09:05:32;94460.38;;;15.38;96.72
56330;BME280;42236;48.058;10.632;2022-10-15T09:11:41;94460.09;;;15.50;96.56
56330;BME280;42236;48.058;10.632;2022-10-15T09:14:33;94464.41;;;15.58;96.52
56330;BME280;42236;48.058;10.632;2022-10-15T09:17:24;94462.94;;;15.68;95.95
56330;BME280;42236;48.058;10.632;2022-10-15T09:20:16;94462.28;;;15.78;94.91
56330;BME280;42236;48.058;10.632;2022-10-15T09:23:02;94460.84;;;15.95;96.55
56330;BME280;42236;48.058;10.632;2022-10-15T09:25:54;94457.81;;;16.07;94.47
56330;BME280;42236;48.058;10.632;2022-10-15T09:29:06;94459.75;;;16.10;92.28
56330;BME280;42236;48.058;10.632;2022-10-15T09:32:20;94455.09;;;16.07;90.03
56330;BME280;42236;48.058;10.632;2022-10-15T09:35:21;94464.84;;;16.12;90.77
56330;BME280;42236;48.058;10.632;2022-10-15T09:44:15;94491.81;;;16.38;91.67
56330;BME280;42236;48.058;10.632;2022-10-15T09:47:26;94498.41;;;16.37;89.35
56330;BME280;42236;48.058;10.632;2022-10-15T09:50:13;94495.31;;;16.42;90.76
56330;BME280;42236;48.058;10.632;2022-10-15T09:56:52;94510.16;;;16.52;87.50
56330;BME280;42236;48.058;10.632;2022-10-15T09:59:51;94503.19;;;16.58;88.19
56330;BME280;42236;48.058;10.632;2022-10-15T10:02:37;94501.28;;;16.66;90.29
56330;BME280;42236;48.058;10.632;2022-10-15T10:05:29;94491.97;;;16.71;89.84
56330;BME280;42236;48.058;10.632;2022-10-15T10:08:23;94501.66;;;16.68;88.74
56330;BME280;42236;48.058;10.632;2022-10-15T10:11:10;94496.22;;;16.72;89.10
56330;BME280;42236;48.058;10.632;2022-10-15T10:13:57;94480.63;;;16.61;88.33
56330;BME280;42236;48.058;10.632;2022-10-15T10:17:25;94486.84;;;16.62;88.24
56330;BME280;42236;48.058;10.632;2022-10-15T10:20:17;94492.81;;;16.85;89.60
56330;BME280;42236;48.058;10.632;2022-10-15T10:23:21;94488.22;;;17.11;87.74
56330;BME280;42236;48.058;10.632;2022-10-15T10:26:09;94502.69;;;17.33;87.95
56330;BME280;42236;48.058;10.632;2022-10-15T10:28:55;94484.38;;;17.48;86.27
56330;BME280;42236;48.058;10.632;2022-10-15T10:31:41;94492.56;;;17.59;85.54
56330;BME280;42236;48.058;10.632;2022-10-15T10:34:30;94499.22;;;17.65;84.92
56330;BME280;42236;48.058;10.632;2022-10-15T10:37:17;94500.41;;;17.71;83.78
56330;BME280;42236;48.058;10.632;2022-10-15T10:40:03;94498.03;;;17.62;83.96
56330;BME280;42236;48.058;10.632;2022-10-15T10:43:09;94489.84;;;17.48;82.32
56330;BME280;42236;48.058;10.632;2022-10-15T10:46:04;94483.22;;;17.45;84.25
56330;BME280;42236;48.058;10.632;2022-10-15T10:48:51;94500.75;;;17.44;84.59
56330;BME280;42236;48.058;10.632;2022-10-15T10:51:47;94503.84;;;17.39;81.73
56330;BME280;42236;48.058;10.632;2022-10-15T10:54:33;94505.00;;;17.31;84.05
56330;BME280;42236;48.058;10.632;2022-10-15T10:57:27;94496.41;;;17.15;82.37
56330;BME280;42236;48.058;10.632;2022-10-15T11:00:20;94497.94;;;17.01;82.34
56330;BME280;42236;48.058;10.632;2022-10-15T11:03:36;94502.94;;;16.85;81.11
56330;BME280;42236;48.058;10.632;2022-10-15T11:06:37;94499.03;;;16.82;82.88
56330;BME280;42236;48.058;10.632;2022-10-15T11:12:49;94486.13;;;16.76;82.24
56330;BME280;42236;48.058;10.632;2022-10-15T11:22:02;94491.72;;;17.04;83.22
56330;BME280;42236;48.058;10.632;2022-10-15T11:28:28;94493.31;;;17.23;82.35
56330;BME280;42236;48.058;10.632;2022-10-15T11:31:28;94483.59;;;17.26;80.80
56330;BME280;42236;48.058;10.632;2022-10-15T11:34:31;94494.88;;;17.28;81.51
56330;BME280;42236;48.058;10.632;2022-10-15T11:44:13;94489.06;;;17.33;83.58
56330;BME280;42236;48.058;10.632;2022-10-15T11:47:08;94490.97;;;17.29;83.23
56330;BME280;42236;48.058;10.632;2022-10-15T11:50:24;94484.38;;;17.37;84.34
56330;BME280;42236;48.058;10.632;2022-10-15T11:56:25;94476.19;;;17.52;83.49
56330;BME280;42236;48.058;10.632;2022-10-15T12:02:34;94471.84;;;16.97;84.11
56330;BME280;42236;48.058;10.632;2022-10-15T12:05:34;94478.81;;;16.87;84.91
56330;BME280;42236;48.058;10.632;2022-10-15T12:08:22;94464.81;;;16.92;84.57
56330;BME280;42236;48.058;10.632;2022-10-15T12:11:36;94467.53;;;16.96;84.29
56330;BME280;42236;48.058;10.632;2022-10-15T12:14:29;94471.06;;;17.00;84.70
56330;BME280;42236;48.058;10.632;2022-10-15T12:17:49;94477.31;;;17.08;84.06
56330;BME280;42236;48.058;10.632;2022-10-15T12:20:40;94464.84;;;17.10;84.37
56330;BME280;42236;48.058;10.632;2022-10-15T12:26:25;94467.25;;;17.55;84.72
56330;BME280;42236;48.058;10.632;2022-10-15T12:29:19;94461.81;;;17.90;83.84
56330;BME280;42236;48.058;10.632;2022-10-15T12:32:22;94458.25;;;18.22;81.18
56330;BME280;42236;48.058;10.632;2022-10-15T12:38:11;94467.63;;;18.25;80.52
56330;BME280;42236;48.058;10.632;2022-10-15T12:41:10;94460.22;;;18.11;78.91
56330;BME280;42236;48.058;10.632;2022-10-15T12:44:06;94459.47;;;17.96;79.01
56330;BME280;42236;48.058;10.632;2022-10-15T12:46:57;94465.72;;;18.00;80.03
56330;BME280;42236;48.058;10.632;2022-10-15T12:49:45;94455.97;;;17.88;79.16
56330;BME280;42236;48.058;10.632;2022-10-15T12:52:57;94462.59;;;17.77;78.09
56330;BME280;42236;48.058;10.632;2022-10-15T12:55:43;94461.44;;;17.88;79.94
56330;BME280;42236;48.058;10.632;2022-10-15T12:58:38;94468.06;;;17.91;78.68
56330;BME280;42236;48.058;10.632;2022-10-15T13:01:28;94458.31;;;17.94;78.08
56330;BME280;42236;48.058;10.632;2022-10-15T13:04:14;94454.00;;;17.85;78.90
56330;BME280;42236;48.058;10.632;2022-10-15T13:07:04;94454.38;;;17.66;78.19
56330;BME280;42236;48.058;10.632;2022-10-15T13:09:49;94450.09;;;17.51;79.00
56330;BME280;42236;48.058;10.632;2022-10-15T13:12:35;94448.91;;;17.52;79.01
56330;BME280;42236;48.058;10.632;2022-10-15T13:15:23;94447.41;;;17.54;78.62
56330;BME280;42236;48.058;10.632;2022-10-15T13:18:12;94437.25;;;17.55;78.41
56330;BME280;42236;48.058;10.632;2022-10-15T13:20:58;94445.81;;;17.60;78.71
56330;BME280;42236;48.058;10.632;2022-10-15T13:23:46;94445.84;;;17.64;78.99
56330;BME280;42236;48.058;10.632;2022-10-15T13:26:32;94439.19;;;17.72;78.93
56330;BME280;42236;48.058;10.632;2022-10-15T13:29:26;94433.34;;;17.77;78.54
56330;BME280;42236;48.058;10.632;2022-10-15T13:32:12;94431.03;;;17.86;79.30
56330;BME280;42236;48.058;10.632;2022-10-15T13:35:00;94431.78;;;17.94;78.06
56330;BME280;42236;48.058;10.632;2022-10-15T13:37:47;94439.56;;;17.99;78.78
56330;BME280;42236;48.058;10.632;2022-10-15T13:40:33;94434.13;;;17.96;78.15
56330;BME280;42236;48.058;10.632;2022-10-15T13:43:21;94429.84;;;17.84;78.66
56330;BME280;42236;48.058;10.632;2022-10-15T13:46:14;94431.78;;;17.76;77.17
56330;BME280;42236;48.058;10.632;2022-10-15T13:49:03;94427.88;;;17.70;78.21
56330;BME280;42236;48.058;10.632;2022-10-15T13:51:53;94433.34;;;17.74;78.34
56330;BME280;42236;48.058;10.632;2022-10-15T13:54:43;94433.72;;;17.79;78.41
56330;BME280;42236;48.058;10.632;2022-10-15T13:57:29;94432.56;;;17.87;78.10
56330;BME280;42236;48.058;10.632;2022-10-15T14:00:30;94427.09;;;17.87;76.49
56330;BME280;42236;48.058;10.632;2022-10-15T14:03:19;94430.22;;;17.75;75.92
56330;BME280;42236;48.058;10.632;2022-10-15T14:09:17;94431.78;;;17.69;75.11
56330;BME280;42236;48.058;10.632;2022-10-15T14:12:05;94433.34;;;17.74;76.48
56330;BME280;42236;48.058;10.632;2022-10-15T14:14:51;94434.91;;;17.75;76.76
56330;BME280;42236;48.058;10.632;2022-10-15T14:17:37;94438.81;;;17.84;76.90
56330;BME280;42236;48.058;10.632;2022-10-15T14:20:23;94445.84;;;17.82;76.56
56330;BME280;42236;48.058;10.632;2022-10-15T14:23:16;94450.88;;;17.80;75.98
56330;BME280;42236;48.058;10.632;2022-10-15T14:26:05;94445.03;;;17.74;76.93
56330;BME280;42236;48.058;10.632;2022-10-15T14:28:51;94445.03;;;17.63;76.75
56330;BME280;42236;48.058;10.632;2022-10-15T14:31:39;94439.56;;;17.63;77.03
56330;BME280;42236;48.058;10.632;2022-10-15T14:40:15;94437.25;;;17.40;77.54
56330;BME280;42236;48.058;10.632;2022-10-15T14:43:14;94430.22;;;17.36;76.88
56330;BME280;42236;48.058;10.632;2022-10-15T14:46:05;94441.91;;;17.36;77.77
56330;BME280;42236;48.058;10.632;2022-10-15T14:48:52;94445.03;;;17.31;77.63
56330;BME280;42236;48.058;10.632;2022-10-15T14:51:37;94448.53;;;17.28;77.37
56330;BME280;42236;48.058;10.632;2022-10-15T14:54:32;94440.34;;;17.28;77.01
56330;BME280;42236;48.058;10.632;2022-10-15T14:57:24;94442.69;;;17.33;75.82
56330;BME280;42236;48.058;10.632;2022-10-15T15:03:15;94441.94;;;17.40;75.92
56330;BME280;42236;48.058;10.632;2022-10-15T15:06:01;94438.00;;;17.73;75.58
56330;BME280;42236;48.058;10.632;2022-10-15T15:08:47;94438.81;;;17.91;74.46
56330;BME280;42236;48.058;10.632;2022-10-15T15:11:32;94438.00;;;17.66;75.08
56330;BME280;42236;48.058;10.632;2022-10-15T15:14:23;94437.25;;;17.47;74.44
56330;BME280;42236;48.058;10.632;2022-10-15T15:17:15;94435.28;;;17.48;75.36
56330;BME280;42236;48.058;10.632;2022-10-15T15:20:01;94442.69;;;17.51;75.63
56330;BME280;42236;48.058;10.632;2022-10-15T15:22:49;94444.25;;;17.48;75.59
56330;BME280;42236;48.058;10.632;2022-10-15T15:25:35;94443.47;;;17.44;76.02
56330;BME280;42236;48.058;10.632;2022-10-15T15:28:24;94443.84;;;17.39;75.71
56330;BME280;42236;48.058;10.632;2022-10-15T15:31:16;94447.75;;;17.38;75.69
56330;BME280;42236;48.058;10.632;2022-10-15T15:34:02;94443.47;;;17.59;75.23
56330;BME280;42236;48.058;10.632;2022-10-15T15:36:48;94459.47;;;17.71;75.05
56330;BME280;42236;48.058;10.632;2022-10-15T15:39:33;94449.72;;;17.56;75.95
56330;BME280;42236;48.058;10.632;2022-10-15T15:42:21;94462.56;;;17.48;76.61
56330;BME280;42236;48.058;10.632;2022-10-15T15:45:17;94456.34;;;17.40;76.76
56330;BME280;42236;48.058;10.632;2022-10-15T15:48:04;94449.69;;;17.34;76.75
56330;BME280;42236;48.058;10.632;2022-10-15T15:50:50;94441.13;;;17.46;76.41
56330;BME280;42236;48.058;10.632;2022-10-15T15:53:36;94446.59;;;17.57;74.86
56330;BME280;42236;48.058;10.632;2022-10-15T15:56:21;94441.53;;;17.59;74.34
56330;BME280;42236;48.058;10.632;2022-10-15T15:59:07;94454.75;;;17.32;76.37
56330;BME280;42236;48.058;10.632;2022-10-15T16:01:53;94454.34;;;17.19;76.46